Time;durP1;ratioP1;P1;durP2;ratioP2;P2;SDS_P1;SDS_P2;PMS_P1;PMS_P2;Temp;Humidity;BMP_temperature;BMP_pressure;BME280_temperature;BME280_humidity;BME280_pressure;Samples;Min_cycle;Max_cycle;Signal;HPM_P1;HPM_P2
2022/06/21 00:01:18;;;;;;;1.90;1.60;;;;;;;27.54;39.02;96888.94;5096753;28;20020;-35
2022/06/21 00:03:45;;;;;;;3.10;1.88;;;;;;;27.58;39.01;96876.72;5097021;28;20028;-33
2022/06/21 00:06:19;;;;;;;3.88;1.85;;;;;;;27.62;39.34;96877.19;5096934;28;20031;-33
2022/06/21 00:08:44;;;;;;;2.17;1.98;;;;;;;27.63;39.22;96870.34;5097294;28;20031;-33
2022/06/21 00:11:23;;;;;;;2.35;1.70;;;;;;;27.67;39.10;96863.19;5095746;28;20032;-33
2022/06/21 00:13:49;;;;;;;2.05;1.58;;;;;;;27.59;38.93;96862.28;5096956;28;20027;-33
2022/06/21 00:19:37;;;;;;;2.70;1.85;;;;;;;27.57;38.99;96855.75;5095821;28;20150;-33
2022/06/21 00:22:03;;;;;;;1.92;1.73;;;;;;;27.61;38.64;96851.34;5096537;28;20024;-33
2022/06/21 00:24:29;;;;;;;2.45;1.70;;;;;;;27.57;39.11;96850.19;5097014;28;20073;-33
2022/06/21 00:26:54;;;;;;;2.25;1.67;;;;;;;27.53;38.94;96856.78;5096673;28;20031;-33
2022/06/21 00:29:19;;;;;;;2.58;1.70;;;;;;;27.50;39.18;96851.50;5096716;28;20463;-33
2022/06/21 00:31:48;;;;;;;1.60;1.50;;;;;;;27.53;38.84;96853.97;5096833;28;20426;-33
2022/06/21 00:34:17;;;;;;;1.90;1.70;;;;;;;27.58;38.57;96851.66;5096363;28;20028;-33
2022/06/21 00:36:44;;;;;;;2.35;1.58;;;;;;;27.57;39.08;96848.13;5096437;28;20032;-34
2022/06/21 00:39:13;;;;;;;2.05;1.85;;;;;;;27.61;38.52;96845.78;5096391;28;20112;-33
2022/06/21 00:41:51;;;;;;;1.70;1.60;;;;;;;27.58;38.46;96846.84;5096178;28;20024;-33
2022/06/21 00:44:27;;;;;;;3.05;1.70;;;;;;;27.61;38.13;96851.34;5096436;28;20020;-33
2022/06/21 00:47:04;;;;;;;1.80;1.70;;;;;;;27.58;38.49;96846.09;5096351;28;20051;-33
2022/06/21 00:49:35;;;;;;;2.00;1.80;;;;;;;27.63;38.41;96848.03;5096315;28;20185;-34
2022/06/21 00:52:16;;;;;;;1.90;1.80;;;;;;;27.57;37.91;96861.31;5096388;28;20059;-33
2022/06/21 00:54:57;;;;;;;2.10;1.70;;;;;;;27.53;37.93;96856.03;5096147;28;20035;-33
2022/06/21 00:57:29;;;;;;;2.10;1.52;;;;;;;27.55;37.70;96850.69;5095828;28;20047;-33
2022/06/21 01:03:21;;;;;;;1.90;1.73;;;;;;;27.58;37.69;96848.88;5095786;28;20169;-33
2022/06/21 01:05:47;;;;;;;2.80;1.70;;;;;;;27.62;37.21;96846.53;5096227;28;20102;-33
2022/06/21 01:08:24;;;;;;;1.80;1.52;;;;;;;27.56;37.00;96843.09;5096284;28;20065;-33
2022/06/21 01:10:52;;;;;;;2.92;1.83;;;;;;;27.63;37.09;96845.25;5096015;28;20107;-33
2022/06/21 01:13:27;;;;;;;1.98;1.77;;;;;;;27.56;37.18;96838.28;5095693;28;20076;-33
2022/06/21 01:15:54;;;;;;;2.13;1.70;;;;;;;27.60;37.19;96846.31;5095961;28;20160;-33
2022/06/21 01:18:23;;;;;;;2.63;1.52;;;;;;;27.54;37.18;96855.50;5095672;28;20028;-33
2022/06/21 01:20:56;;;;;;;2.35;1.73;;;;;;;27.55;36.85;96847.88;5095574;28;20031;-33
2022/06/21 01:23:40;;;;;;;1.92;1.38;;;;;;;27.48;36.97;96848.50;5094225;28;20036;-33
2022/06/21 01:26:28;;;;;;;3.65;2.00;;;;;;;27.49;36.42;96853.53;5095662;28;20064;-33
2022/06/21 01:28:54;;;;;;;1.80;1.70;;;;;;;27.49;36.29;96850.00;5095632;28;20020;-33
2022/06/21 01:31:20;;;;;;;3.10;1.50;;;;;;;27.52;36.46;96855.28;5094088;28;20039;-33
2022/06/21 01:33:46;;;;;;;2.42;1.80;;;;;;;27.52;36.58;96848.94;5095279;28;20024;-33
2022/06/21 01:36:35;;;;;;;2.30;1.80;;;;;;;27.47;36.33;96842.16;5095221;28;20027;-33
2022/06/21 01:39:07;;;;;;;1.70;1.60;;;;;;;27.48;36.19;96835.31;5095125;28;20024;-33
2022/06/21 01:41:46;;;;;;;2.05;1.50;;;;;;;27.50;35.45;96843.16;5095658;28;20020;-34
2022/06/21 01:44:21;;;;;;;2.10;1.90;;;;;;;27.40;35.71;96845.56;5094064;28;20552;-33
2022/06/21 01:46:47;;;;;;;2.85;1.70;;;;;;;27.43;35.60;96844.53;5095207;28;20036;-33
2022/06/21 01:49:16;;;;;;;4.47;1.83;;;;;;;27.39;35.74;96835.72;5095026;28;20464;-33
2022/06/21 01:51:55;;;;;;;2.58;1.83;;;;;;;27.41;35.14;96822.00;5095195;28;20035;-33
2022/06/21 01:54:24;;;;;;;2.55;1.80;;;;;;;27.40;35.28;96809.38;5095122;28;20020;-33
2022/06/21 01:56:51;;;;;;;2.03;1.60;;;;;;;27.43;35.41;96804.78;5094634;28;20492;-33
2022/06/21 01:59:33;;;;;;;1.95;1.70;;;;;;;27.46;35.21;96804.44;5102992;28;20027;-33
2022/06/21 02:02:16;;;;;;;2.60;1.60;;;;;;;27.39;34.71;96799.50;5114467;28;20094;-33
2022/06/21 02:05:08;;;;;;;1.73;1.45;;;;;;;27.37;35.75;96793.72;5115147;28;20435;-33
2022/06/21 02:07:39;;;;;;;2.17;1.65;;;;;;;27.31;35.42;96790.28;5110121;28;20035;-33
2022/06/21 02:10:18;;;;;;;2.53;1.73;;;;;;;27.34;35.20;96783.63;5114866;28;20023;-33
2022/06/21 02:12:51;;;;;;;1.60;1.48;;;;;;;27.28;34.91;96782.97;5114997;28;20522;-33
2022/06/21 02:15:34;;;;;;;2.42;1.65;;;;;;;27.32;35.12;96786.22;5114906;28;20471;-33
2022/06/21 02:18:01;;;;;;;;;;;;;;;27.30;34.68;96794.34;5115335;28;20511;-33
2022/06/21 02:20:37;;;;;;;2.20;1.58;;;;;;;27.33;35.26;96786.94;5114814;28;19907;-33
2022/06/21 02:23:05;;;;;;;2.00;1.70;;;;;;;27.24;34.79;96796.44;5115142;28;20023;-33
2022/06/21 02:25:33;;;;;;;1.88;1.60;;;;;;;27.24;34.88;96785.31;5114874;28;20039;-33
2022/06/21 02:28:07;;;;;;;2.85;1.90;;;;;;;27.26;34.44;96777.19;5114613;28;20024;-33
2022/06/21 02:30:36;;;;;;;1.65;1.55;;;;;;;27.28;34.75;96777.41;5114790;28;20023;-33
2022/06/21 02:33:05;;;;;;;2.33;1.55;;;;;;;27.28;34.72;96782.97;5113618;28;20051;-35
2022/06/21 02:36:01;;;;;;;2.17;1.63;;;;;;;27.20;34.87;96790.41;5113240;28;20031;-33
2022/06/21 02:38:33;;;;;;;2.00;1.60;;;;;;;27.25;34.35;96791.63;5114576;28;20026;-33
2022/06/21 02:41:03;;;;;;;1.88;1.42;;;;;;;27.28;34.53;96780.19;5114609;28;20030;-33
2022/06/21 02:43:57;;;;;;;2.63;1.70;;;;;;;27.24;34.81;96773.41;5114546;28;20019;-33
2022/06/21 02:46:31;;;;;;;1.88;1.60;;;;;;;27.23;34.27;96778.22;5114378;28;20030;-33
2022/06/21 02:49:30;;;;;;;1.95;1.70;;;;;;;27.21;34.80;96774.47;5114149;28;20028;-33
2022/06/21 02:52:00;;;;;;;2.47;1.60;;;;;;;27.22;34.68;96773.94;5114265;28;20471;-33
2022/06/21 02:54:34;;;;;;;2.67;1.90;;;;;;;27.25;34.64;96788.84;5114407;28;20023;-33
2022/06/21 02:57:08;;;;;;;1.50;1.40;;;;;;;27.22;34.35;96784.31;5114050;28;20055;-33
2022/06/21 02:59:36;;;;;;;2.75;1.30;;;;;;;27.20;34.23;96784.84;5114189;28;20434;-33
2022/06/21 03:02:08;;;;;;;2.15;1.70;;;;;;;27.20;34.51;96789.69;5113049;28;20019;-33
2022/06/21 03:04:42;;;;;;;3.38;1.98;;;;;;;27.17;34.50;96802.63;5114277;28;20447;-33
2022/06/21 03:07:14;;;;;;;1.63;1.52;;;;;;;27.21;34.52;96811.41;5114276;28;20027;-33
2022/06/21 03:09:40;;;;;;;2.67;1.90;;;;;;;27.19;34.21;96816.78;5114044;28;20023;-33
2022/06/21 03:12:07;;;;;;;2.97;1.73;;;;;;;27.14;34.25;96823.94;5114444;28;20024;-33
2022/06/21 03:14:36;;;;;;;2.47;1.77;;;;;;;27.17;34.53;96822.88;5114026;28;20039;-33
2022/06/21 03:17:05;;;;;;;3.13;1.75;;;;;;;27.20;34.18;96812.69;5112659;28;20463;-33
2022/06/21 03:19:41;;;;;;;2.63;1.60;;;;;;;27.17;34.25;96791.50;5113746;28;20084;-33
2022/06/21 03:22:23;;;;;;;2.20;1.77;;;;;;;27.14;34.11;96798.88;5112139;28;20020;-33
2022/06/21 03:24:51;;;;;;;1.77;1.63;;;;;;;27.18;34.47;96793.00;5112531;28;20027;-33
2022/06/21 03:27:49;;;;;;;2.53;1.80;;;;;;;27.12;34.02;96789.53;5112891;28;20338;-33
2022/06/21 03:30:16;;;;;;;2.67;1.77;;;;;;;27.07;34.02;96801.53;5108132;28;20055;-33
2022/06/21 03:32:43;;;;;;;1.67;1.50;;;;;;;27.11;33.93;96807.53;5112395;28;20382;-33
2022/06/21 03:35:10;;;;;;;2.13;1.65;;;;;;;27.07;33.86;96821.00;5113859;28;20028;-34
2022/06/21 03:37:38;;;;;;;3.47;2.17;;;;;;;27.11;34.18;96821.44;5112368;28;20054;-33
2022/06/21 03:42:52;;;;;;;2.35;1.75;;;;;;;27.10;34.17;96829.03;5113784;28;20068;-33
2022/06/21 03:45:25;;;;;;;3.15;1.52;;;;;;;27.15;33.81;96844.91;5113554;28;20024;-33
2022/06/21 03:48:21;;;;;;;2.13;1.77;;;;;;;27.09;33.78;96835.13;5113903;28;20440;-34
2022/06/21 03:50:54;;;;;;;2.15;1.58;;;;;;;27.12;34.03;96839.66;5107048;28;20031;-33
2022/06/21 03:53:33;;;;;;;2.45;1.70;;;;;;;27.11;34.03;96849.28;5113573;28;20559;-33
2022/06/21 03:56:34;;;;;;;2.58;1.98;;;;;;;27.08;34.42;96853.13;5113292;28;20055;-32
2022/06/21 03:59:08;;;;;;;2.95;2.28;;;;;;;27.04;34.25;96856.22;5113515;28;20028;-33
2022/06/21 04:01:38;;;;;;;4.07;2.50;;;;;;;27.10;33.90;96847.78;5113406;28;20047;-33
2022/06/21 04:04:36;;;;;;;4.25;2.88;;;;;;;27.10;34.10;96854.09;5113466;28;20455;-33
2022/06/21 04:07:42;;;;;;;5.68;3.22;;;;;;;27.08;34.14;96858.69;5113047;28;20074;-33
2022/06/21 04:10:19;;;;;;;4.05;2.85;;;;;;;27.05;34.17;96857.72;5113399;28;20023;-33
2022/06/21 04:12:48;;;;;;;4.70;2.50;;;;;;;27.06;33.44;96850.13;5113575;28;20039;-33
2022/06/21 04:15:26;;;;;;;3.20;2.83;;;;;;;27.05;33.51;96863.28;5113279;28;20463;-33
2022/06/21 04:17:59;;;;;;;5.95;3.30;;;;;;;27.07;33.62;96868.34;5113414;28;20030;-33
2022/06/21 04:20:49;;;;;;;3.80;3.05;;;;;;;27.04;34.00;96866.59;5113278;28;20383;-33
2022/06/21 04:23:42;;;;;;;4.50;3.50;;;;;;;27.01;33.65;96864.84;5113327;28;20028;-33
2022/06/21 04:26:17;;;;;;;6.80;3.97;;;;;;;26.97;33.75;96867.94;5106692;28;20114;-33
2022/06/21 04:28:55;;;;;;;4.65;3.22;;;;;;;27.00;33.84;96882.84;5113210;28;20540;-33
2022/06/21 04:32:03;;;;;;;4.68;3.05;;;;;;;27.01;33.72;96864.84;5113331;28;20080;-33
2022/06/21 04:35:12;;;;;;;5.85;3.35;;;;;;;27.00;34.40;96866.13;5111756;28;20031;-33
2022/06/21 04:37:37;;;;;;;4.55;2.90;;;;;;;26.99;34.24;96872.97;5057506;28;20079;-33
2022/06/21 04:40:11;;;;;;;3.50;2.47;;;;;;;27.02;34.01;96869.91;5073908;28;20037;-33
2022/06/21 04:42:49;;;;;;;4.95;3.28;;;;;;;27.01;34.13;96859.28;5074272;28;20486;-33
2022/06/21 04:45:35;;;;;;;7.63;2.80;;;;;;;27.04;34.32;96856.22;5073959;28;20028;-33
2022/06/21 04:48:24;;;;;;;10.50;2.88;;;;;;;26.96;34.83;96876.81;5074112;28;20032;-33
2022/06/21 04:50:57;;;;;;;12.48;3.38;;;;;;;26.99;34.94;96881.31;5073951;28;20453;-33
2022/06/21 04:54:03;;;;;;;9.25;3.05;;;;;;;27.03;34.63;96876.97;5074236;28;20032;-33
2022/06/21 04:56:32;;;;;;;6.55;2.78;;;;;;;26.96;34.96;96871.25;4994403;28;20070;-33
2022/06/21 04:58:59;;;;;;;4.28;2.72;;;;;;;27.01;35.20;96873.22;4994251;28;20116;-33
2022/06/21 05:01:34;;;;;;;6.05;3.00;;;;;;;26.96;35.17;96887.94;4994434;28;20050;-33
2022/06/21 05:04:14;;;;;;;4.63;2.60;;;;;;;27.04;35.35;96888.88;4994689;28;20165;-33
2022/06/21 05:06:40;;;;;;;6.35;2.20;;;;;;;27.01;35.46;96889.91;4994242;28;20034;-33
2022/06/21 05:09:06;;;;;;;3.97;2.53;;;;;;;26.99;35.13;96889.69;4994421;28;20038;-33
2022/06/21 05:11:32;;;;;;;5.25;2.70;;;;;;;27.04;35.40;96884.06;4994212;28;20030;-33
2022/06/21 05:13:59;;;;;;;4.65;3.20;;;;;;;26.97;35.60;96892.97;5047089;28;20171;-33
2022/06/21 05:16:28;;;;;;;4.90;2.78;;;;;;;26.97;35.39;96895.00;5053362;28;20038;-33
2022/06/21 05:19:06;;;;;;;6.03;3.13;;;;;;;26.94;35.80;96901.66;5036575;28;20167;-33
2022/06/21 05:21:38;;;;;;;5.22;2.70;;;;;;;27.02;35.68;96885.84;5053163;28;20108;-33
2022/06/21 05:24:05;;;;;;;6.10;2.85;;;;;;;26.94;36.09;96885.72;5053317;28;20513;-33
2022/06/21 05:26:36;;;;;;;4.65;2.53;;;;;;;26.95;36.02;96884.44;5067451;28;20039;-33
2022/06/21 05:29:14;;;;;;;3.47;2.53;;;;;;;26.96;35.47;96882.38;5115861;28;20357;-33
2022/06/21 05:31:45;;;;;;;4.32;2.55;;;;;;;27.01;35.46;96889.91;5115841;28;20028;-33
2022/06/21 05:34:19;;;;;;;3.95;2.28;;;;;;;27.05;35.70;96870.88;5115777;28;20082;-33
2022/06/21 05:37:00;;;;;;;4.07;2.63;;;;;;;27.06;35.27;96875.19;5115603;28;20063;-33
2022/06/21 05:39:44;;;;;;;4.35;2.47;;;;;;;27.04;35.61;96878.50;5114114;28;20026;-33
2022/06/21 05:42:13;;;;;;;3.90;2.25;;;;;;;27.01;35.33;96873.22;5115851;28;20452;-33
2022/06/21 05:44:48;;;;;;;4.20;2.50;;;;;;;26.96;35.94;96883.13;5117625;27;20038;-33
2022/06/21 05:47:42;;;;;;;3.95;2.13;;;;;;;27.02;35.64;96889.38;5113898;28;20030;-33
2022/06/21 05:50:15;;;;;;;5.35;2.60;;;;;;;27.06;35.16;96887.06;5113956;28;20027;-33
2022/06/21 05:52:45;;;;;;;4.50;3.53;;;;;;;27.02;35.70;96891.41;5113854;28;20028;-33
2022/06/21 05:55:16;;;;;;;12.68;6.70;;;;;;;26.98;35.23;96902.09;5113653;28;20391;-33
2022/06/21 05:57:49;;;;;;;12.75;7.63;;;;;;;27.04;35.06;96900.00;5113351;28;20050;-33
2022/06/21 06:00:26;;;;;;;;;;;;;;;27.04;35.03;96900.75;5113872;28;20075;-33
2022/06/21 06:03:04;;;;;;;10.88;6.72;;;;;;;26.95;35.33;96903.16;5132823;27;19907;-33
2022/06/21 06:05:35;;;;;;;7.38;5.35;;;;;;;27.05;35.25;96904.28;5134120;27;20030;-33
2022/06/21 06:08:08;;;;;;;9.45;5.38;;;;;;;26.99;34.88;96912.69;5133880;27;20106;-33
2022/06/21 06:10:35;;;;;;;10.02;5.63;;;;;;;27.04;35.20;96923.03;5133887;27;20051;-33
2022/06/21 06:13:11;;;;;;;9.23;5.43;;;;;;;27.06;34.75;96919.72;5133881;27;20031;-33
2022/06/21 06:15:44;;;;;;;6.00;5.38;;;;;;;27.05;34.81;96930.09;5133984;27;20023;-33
2022/06/21 06:18:12;;;;;;;5.88;4.57;;;;;;;27.06;35.12;96931.59;5133807;27;20031;-33
2022/06/21 06:20:48;;;;;;;6.95;4.53;;;;;;;27.03;34.57;96934.69;5133779;27;20027;-34
2022/06/21 06:23:36;;;;;;;5.40;4.10;;;;;;;27.05;34.83;96929.34;5132390;27;20420;-33
2022/06/21 06:26:13;;;;;;;5.53;4.05;;;;;;;27.04;34.73;96936.94;5133656;27;20041;-33
2022/06/21 06:29:01;;;;;;;8.25;4.18;;;;;;;26.90;35.12;96931.78;5133535;27;20478;-33
2022/06/21 06:31:59;;;;;;;7.90;4.43;;;;;;;26.93;34.49;96927.97;5131591;27;20041;-34
2022/06/21 06:34:32;;;;;;;5.55;3.75;;;;;;;26.98;33.90;96936.25;5133026;27;20451;-33
2022/06/21 06:37:19;;;;;;;8.80;4.30;;;;;;;26.93;34.45;96927.97;5133590;27;20114;-33
2022/06/21 06:39:44;;;;;;;4.03;3.40;;;;;;;26.96;34.11;96924.13;5092537;28;20484;-33
2022/06/21 06:42:16;;;;;;;4.18;3.20;;;;;;;26.90;34.33;96929.75;5092584;28;20043;-33
2022/06/21 06:45:22;;;;;;;8.75;3.47;;;;;;;26.95;34.32;96931.75;5092842;28;20020;-33
2022/06/21 06:47:53;;;;;;;5.57;3.30;;;;;;;26.95;34.49;96925.44;5092543;28;20020;-33
2022/06/21 06:50:59;;;;;;;4.68;3.30;;;;;;;27.01;34.40;96915.72;5092421;28;20026;-33
2022/06/21 06:53:38;;;;;;;4.38;3.20;;;;;;;26.94;34.13;96919.09;5041949;28;20812;-33
2022/06/21 06:56:08;;;;;;;4.55;3.22;;;;;;;26.92;33.75;96921.63;5091572;28;20027;-32
2022/06/21 06:58:57;;;;;;;4.93;2.88;;;;;;;26.81;33.65;96911.38;5091815;28;20413;-33
2022/06/21 07:01:44;;;;;;;4.60;2.97;;;;;;;26.91;33.46;96914.56;5090673;28;20031;-34
2022/06/21 07:04:14;;;;;;;4.25;2.88;;;;;;;26.94;34.12;96932.28;5092380;28;20031;-33
2022/06/21 07:06:49;;;;;;;3.67;2.90;;;;;;;26.78;33.92;96923.56;5090648;28;20595;-33
2022/06/21 07:09:26;;;;;;;3.63;2.45;;;;;;;26.69;33.75;96920.38;5092194;28;20404;-33
2022/06/21 07:12:20;;;;;;;3.92;2.53;;;;;;;26.76;33.60;96931.66;5092314;28;20024;-33
2022/06/21 07:14:48;;;;;;;4.53;2.63;;;;;;;26.82;33.56;96923.25;5091941;28;20045;-33
2022/06/21 07:17:25;;;;;;;3.60;2.42;;;;;;;26.82;33.47;96931.63;5092171;28;20066;-33
2022/06/21 07:19:53;;;;;;;2.97;2.38;;;;;;;26.90;33.39;96934.56;5091797;28;20055;-33
2022/06/21 07:22:24;;;;;;;2.95;2.15;;;;;;;26.81;34.09;96928.06;5091916;28;20024;-33
2022/06/21 07:24:52;;;;;;;3.47;2.60;;;;;;;26.90;34.01;96929.00;5091319;28;20028;-33
2022/06/21 07:27:21;;;;;;;3.88;2.45;;;;;;;26.81;33.63;96933.66;5091890;28;20074;-33
2022/06/21 07:30:01;;;;;;;3.67;2.20;;;;;;;26.83;33.52;96925.50;5091870;28;20114;-33
2022/06/21 07:32:49;;;;;;;2.45;2.20;;;;;;;26.90;33.63;96920.63;5091998;28;20028;-33
2022/06/21 07:35:22;;;;;;;6.43;2.40;;;;;;;26.87;33.75;96932.81;5091707;28;20503;-32
2022/06/21 07:37:56;;;;;;;3.55;2.08;;;;;;;26.82;33.63;96926.81;5091953;28;20096;-33
2022/06/21 07:40:31;;;;;;;5.00;2.60;;;;;;;26.69;33.58;96923.91;5091621;28;20024;-33
2022/06/21 07:43:11;;;;;;;3.40;2.08;;;;;;;26.73;33.51;96929.91;5091869;28;20103;-33
2022/06/21 07:45:52;;;;;;;2.88;2.30;;;;;;;26.67;33.48;96928.50;5091676;28;20024;-33
2022/06/21 07:48:27;;;;;;;4.03;2.20;;;;;;;26.69;33.09;96923.16;5091714;28;20024;-33
2022/06/21 07:50:57;;;;;;;4.63;2.35;;;;;;;26.72;33.78;96925.63;5093441;28;20035;-33
2022/06/21 07:53:55;;;;;;;3.50;1.90;;;;;;;26.80;33.22;96928.59;5092913;28;20084;-33
2022/06/21 07:56:47;;;;;;;3.08;2.03;;;;;;;26.91;33.80;96928.47;5048688;28;20500;-33
2022/06/21 07:59:17;;;;;;;4.57;2.67;;;;;;;26.07;34.13;96934.84;5048464;28;20068;-31
2022/06/21 08:07:35;;;;;;;3.35;1.80;;;;;;;26.43;32.40;96926.47;5068253;28;20514;-34
2022/06/21 08:10:22;;;;;;;2.40;1.92;;;;;;;26.52;32.24;96920.53;5054443;28;20056;-34
2022/06/21 08:12:49;;;;;;;2.88;2.08;;;;;;;26.59;32.51;96922.72;5054560;28;20037;-34
2022/06/21 08:15:15;;;;;;;2.50;1.92;;;;;;;26.62;32.67;96916.13;5054190;28;20033;-35
2022/06/21 08:18:21;;;;;;;4.40;2.17;;;;;;;26.59;32.27;96913.63;5054462;28;20159;-34
2022/06/21 08:20:57;;;;;;;2.80;1.95;;;;;;;26.64;32.78;96918.41;5006898;28;20040;-34
2022/06/21 08:23:47;;;;;;;3.70;2.05;;;;;;;26.65;32.34;96920.66;5054707;28;20048;-34
2022/06/21 08:26:27;;;;;;;3.08;2.03;;;;;;;26.73;32.52;96904.88;5054594;28;20033;-35
2022/06/21 08:29:00;;;;;;;5.72;1.95;;;;;;;26.74;32.64;96914.72;5054265;28;20113;-34
2022/06/21 08:31:33;;;;;;;2.55;1.73;;;;;;;26.78;32.55;96912.41;5058869;28;20404;-34
2022/06/21 08:34:40;;;;;;;3.50;2.20;;;;;;;26.59;32.07;96896.94;5134230;27;20051;-34
2022/06/21 08:37:14;;;;;;;4.03;2.03;;;;;;;26.52;31.85;96894.75;5137418;27;20471;-35
2022/06/21 08:39:55;;;;;;;3.40;2.40;;;;;;;26.62;32.00;96905.00;5137358;27;20030;-34
2022/06/21 08:42:48;;;;;;;2.42;1.85;;;;;;;26.64;32.51;96905.25;5136674;27;20054;-34
2022/06/21 08:45:41;;;;;;;;;;;;;;;26.66;32.18;96916.59;5137293;27;20023;-34
2022/06/21 08:48:12;;;;;;;3.90;2.20;;;;;;;26.50;32.15;96902.88;5137244;27;20248;-33
2022/06/21 08:51:08;;;;;;;4.85;2.25;;;;;;;26.68;32.44;96910.53;5137503;27;20023;-34
2022/06/21 08:53:57;;;;;;;3.05;1.98;;;;;;;26.56;31.73;96895.97;5136896;27;20027;-34
2022/06/21 08:56:28;;;;;;;4.20;2.30;;;;;;;26.62;32.16;96893.88;5136816;27;20043;-34
2022/06/21 08:59:37;;;;;;;2.83;2.30;;;;;;;26.64;32.60;96891.34;5137257;27;20028;-33
2022/06/21 09:02:39;;;;;;;3.28;1.90;;;;;;;26.69;32.42;96898.88;5136978;27;20072;-34
2022/06/21 09:05:16;;;;;;;2.47;2.05;;;;;;;26.76;32.16;96887.16;5136951;27;20019;-34
2022/06/21 09:07:53;;;;;;;4.13;2.00;;;;;;;26.60;32.57;96888.09;5136832;27;20036;-34
2022/06/21 09:10:22;;;;;;;2.35;2.00;;;;;;;26.72;32.52;96886.69;5136800;27;20047;-34
2022/06/21 09:13:24;;;;;;;4.78;2.25;;;;;;;26.80;32.68;96887.63;5136840;27;20023;-35
2022/06/21 09:16:17;;;;;;;3.00;2.13;;;;;;;26.76;32.43;96886.41;5136865;27;20031;-34
2022/06/21 09:18:43;;;;;;;2.55;2.20;;;;;;;26.78;32.43;96879.03;5136534;27;20092;-34
2022/06/21 09:21:31;;;;;;;4.95;2.30;;;;;;;26.84;32.71;96878.94;5135878;27;20467;-34
2022/06/21 09:24:04;;;;;;;4.60;1.98;;;;;;;26.82;32.85;96873.94;5136544;27;20022;-34
2022/06/21 09:26:33;;;;;;;3.85;2.30;;;;;;;26.89;32.75;96880.16;5136589;27;20482;-34
2022/06/21 09:29:25;;;;;;;2.47;2.25;;;;;;;26.81;32.88;96869.63;5136376;27;20020;-34
2022/06/21 09:32:10;;;;;;;2.08;1.88;;;;;;;26.83;32.57;96874.66;5107039;27;20497;-35
2022/06/21 09:35:10;;;;;;;3.20;2.20;;;;;;;26.84;32.50;96871.34;5136476;27;20413;-34
2022/06/21 09:38:14;;;;;;;4.57;2.53;;;;;;;26.88;32.77;96881.44;5136245;27;20029;-34
2022/06/21 09:41:05;;;;;;;9.00;2.65;;;;;;;26.75;32.97;96877.28;5072691;28;20501;-34
2022/06/21 09:43:52;;;;;;;3.35;2.20;;;;;;;26.74;33.19;96875.03;5044738;28;20036;-35
2022/06/21 09:46:25;;;;;;;3.92;2.00;;;;;;;26.83;32.79;96863.53;5072937;28;20044;-34
2022/06/21 09:48:50;;;;;;;;;;;;;;;26.74;32.84;96867.44;5056537;28;20115;-35
2022/06/21 09:51:29;;;;;;;4.57;2.40;;;;;;;26.81;32.51;96861.28;5072783;28;20416;-35
2022/06/21 09:54:19;;;;;;;3.65;2.22;;;;;;;26.82;32.78;96848.88;5072756;28;20745;-34
2022/06/21 09:57:12;;;;;;;3.08;2.20;;;;;;;26.73;32.92;96849.22;5055669;28;20159;-34
2022/06/21 10:00:03;;;;;;;2.50;2.20;;;;;;;26.66;32.52;96854.66;5072950;28;20102;-34
2022/06/21 10:02:59;;;;;;;2.72;2.15;;;;;;;26.59;33.04;96833.72;5072686;28;20082;-34
2022/06/21 10:05:32;;;;;;;2.90;2.08;;;;;;;26.79;32.30;96827.66;5072455;28;20037;-34
2022/06/21 10:08:48;;;;;;;4.85;2.30;;;;;;;26.79;32.52;96830.44;5057144;28;20031;-34
2022/06/21 10:11:16;;;;;;;7.15;2.25;;;;;;;26.77;32.25;96827.44;5023499;28;20493;-35
2022/06/21 10:14:02;;;;;;;3.75;2.00;;;;;;;26.87;32.60;96818.72;5032379;28;20029;-34
2022/06/21 10:16:52;;;;;;;3.13;2.15;;;;;;;26.86;32.61;96820.75;5032274;28;20025;-34
2022/06/21 10:19:20;;;;;;;4.65;2.20;;;;;;;26.87;32.73;96832.63;5094576;28;20020;-34
2022/06/21 10:22:19;;;;;;;4.07;2.13;;;;;;;26.84;32.70;96812.16;5094438;28;20024;-34
2022/06/21 10:25:11;;;;;;;3.58;2.13;;;;;;;26.81;32.74;96821.59;5093587;28;20524;-34
2022/06/21 10:28:07;;;;;;;2.60;2.00;;;;;;;26.72;32.75;96811.56;5094527;28;20492;-34
2022/06/21 10:30:54;;;;;;;3.88;2.58;;;;;;;26.77;32.23;96810.00;5081615;28;20032;-34
2022/06/21 10:33:34;;;;;;;3.55;2.00;;;;;;;26.80;32.14;96804.13;5094485;28;20380;-34
2022/06/21 10:36:21;;;;;;;5.45;2.08;;;;;;;26.82;32.06;96811.97;5094394;28;20039;-34
2022/06/21 10:38:46;;;;;;;3.00;1.83;;;;;;;26.73;32.08;96799.16;5094012;28;20030;-34
2022/06/21 10:41:38;;;;;;;3.83;1.90;;;;;;;26.88;32.21;96800.72;5094231;28;20020;-34
2022/06/21 10:44:24;;;;;;;4.95;2.13;;;;;;;26.94;31.79;96804.25;5094097;28;20023;-34
2022/06/21 10:46:58;;;;;;;5.72;2.75;;;;;;;26.93;31.92;96803.47;5093963;28;20028;-34
2022/06/21 10:49:35;;;;;;;3.60;2.45;;;;;;;27.00;31.76;96814.00;5094036;28;20020;-34
2022/06/21 10:52:26;;;;;;;6.03;3.78;;;;;;;27.01;31.99;96812.72;5094249;28;20108;-34
2022/06/21 10:55:19;;;;;;;4.82;3.15;;;;;;;27.01;32.02;96809.19;5093852;28;20027;-34
2022/06/21 10:57:53;;;;;;;3.55;3.20;;;;;;;26.98;32.09;96799.84;5093856;28;20048;-34
2022/06/21 11:01:19;;;;;;;10.57;3.47;;;;;;;26.98;31.87;96813.03;5093910;28;20059;-34
2022/06/21 11:04:06;;;;;;;6.13;3.45;;;;;;;26.98;31.68;96807.44;5092609;28;20058;-34
2022/06/21 11:07:09;;;;;;;3.42;3.10;;;;;;;26.97;31.92;96792.78;5093732;28;20028;-34
2022/06/21 11:10:01;;;;;;;5.57;3.43;;;;;;;26.97;32.31;96795.56;5093697;28;20472;-35
2022/06/21 11:12:53;;;;;;;4.22;3.00;;;;;;;26.99;32.21;96801.34;5093725;28;20345;-34
2022/06/21 11:15:27;;;;;;;5.13;3.00;;;;;;;26.93;32.08;96802.72;5093660;28;20044;-34
2022/06/21 11:18:07;;;;;;;5.28;3.00;;;;;;;27.03;32.33;96799.03;5093740;28;20024;-34
2022/06/21 11:20:44;;;;;;;8.70;3.00;;;;;;;27.02;32.10;96807.91;5093765;28;20472;-34
2022/06/21 11:23:38;;;;;;;7.55;3.08;;;;;;;27.10;32.25;96797.66;5093780;28;20418;-34
2022/06/21 11:26:25;;;;;;;6.15;2.60;;;;;;;27.10;32.23;96806.00;5093496;28;20024;-35
2022/06/21 11:29:02;;;;;;;6.85;2.60;;;;;;;27.11;32.16;96799.91;5093485;28;20426;-34
2022/06/21 11:31:52;;;;;;;2.75;2.47;;;;;;;26.91;32.38;96796.91;5093581;28;20028;-34
2022/06/21 11:34:29;;;;;;;6.32;2.80;;;;;;;27.01;32.39;96789.69;5093491;28;20020;-35
2022/06/21 11:37:17;;;;;;;4.35;2.72;;;;;;;27.09;32.29;96785.78;5092080;28;20027;-35
2022/06/21 11:40:01;;;;;;;6.47;2.53;;;;;;;27.09;32.74;96785.03;5093195;28;20035;-34
2022/06/21 11:42:36;;;;;;;5.93;2.50;;;;;;;27.05;32.92;96790.16;5092524;28;20032;-34
2022/06/21 11:45:59;;;;;;;4.72;2.38;;;;;;;27.12;32.59;96786.75;5097660;28;20448;-34
2022/06/21 11:48:24;;;;;;;4.85;2.63;;;;;;;27.08;33.01;96787.06;5055055;28;20603;-34
2022/06/21 11:51:11;;;;;;;3.15;2.50;;;;;;;27.09;33.02;96782.25;5038401;28;20116;-34
2022/06/21 11:54:38;;;;;;;3.15;2.35;;;;;;;27.12;32.90;96784.72;5054064;28;20037;-34
2022/06/21 11:57:17;;;;;;;3.95;2.67;;;;;;;27.09;33.58;96782.25;4995214;28;20458;-34
2022/06/21 12:00:05;;;;;;;3.63;2.40;;;;;;;27.15;33.44;96788.50;4995726;28;20438;-34
2022/06/21 12:02:51;;;;;;;4.97;2.67;;;;;;;27.10;33.41;96780.97;4995328;28;20560;-34
2022/06/21 12:05:38;;;;;;;4.40;2.35;;;;;;;27.11;33.51;96788.03;4995416;28;20053;-34
2022/06/21 12:08:51;;;;;;;3.45;2.20;;;;;;;27.16;33.28;96779.59;4995618;28;20146;-34
2022/06/21 12:11:38;;;;;;;3.28;2.15;;;;;;;27.13;33.98;96779.91;4956445;29;20042;-34
2022/06/21 12:14:19;;;;;;;7.38;2.47;;;;;;;27.09;33.83;96771.84;4956597;28;20177;-34
2022/06/21 12:17:10;;;;;;;2.30;2.10;;;;;;;27.15;34.31;96777.34;4955902;29;20094;-34
2022/06/21 12:19:41;;;;;;;2.97;2.22;;;;;;;27.10;34.92;96778.94;4961990;28;20046;-34
2022/06/21 12:22:21;;;;;;;3.08;2.22;;;;;;;27.18;34.84;96784.66;4976062;28;20058;-34
2022/06/21 12:24:47;;;;;;;3.80;2.70;;;;;;;27.14;35.43;96773.81;4975386;28;20039;-34
2022/06/21 12:27:14;;;;;;;3.15;2.42;;;;;;;27.10;35.21;96776.16;4975650;28;20065;-34
2022/06/21 12:29:40;;;;;;;3.35;2.30;;;;;;;27.05;36.01;96776.25;4975532;28;20475;-34
2022/06/21 12:32:17;;;;;;;3.40;2.55;;;;;;;27.25;35.84;96775.66;5031079;28;20150;-34
2022/06/21 12:34:55;;;;;;;3.45;2.53;;;;;;;27.28;35.71;96768.28;5034436;28;20036;-35
2022/06/21 12:37:28;;;;;;;4.63;2.75;;;;;;;27.22;36.43;96771.16;5034307;28;20030;-34
2022/06/21 12:40:01;;;;;;;;;;;;;;;27.27;36.11;96778.69;5034659;28;20068;-34
2022/06/21 12:43:08;;;;;;;3.53;2.47;;;;;;;27.23;36.36;96772.66;5034082;28;20376;-34
2022/06/21 12:45:34;;;;;;;2.92;2.60;;;;;;;27.21;36.28;96780.78;5063469;28;20032;-35